Historyczne dane pomiarowe

Dodano dane terminowe – wersja testowa.

Dane z okresu 1951-2019

Wersja bazy: 1.34 [2019-03-16, lista zmian], aktualizacja planowana na 2019-04-15

Dane meteo z obszaru Polski uzyskane na podstawie danych udostępnionych przez Instytut Meteorologii i Gospodarki Wodnej – Państwowy Instytut Badawczy.

 

Wybierz Datę:    

       

TemperaturaWilgotnośćWiatrCiśnienieOpadyŚniegCzas trwania zjawisk
 Stacja t tx tn tng RH VA  wxwx mslp ppp RRR   cm mm wxwxwxwxwxwxwx
1997-03-18 -1.1 1.9 -3.5- 84.3- 5.7 3.0---- 0.5------------
1997-03-19 -1.4 2.0 -4.3- 79.0- 6.0 2.0---- 1.2------------
1997-03-20 -1.6 1.2 -4.5- 84.0- 4.7 5.0---- 0.0-- 2---------
1997-03-21 1.0 4.0 -1.2- 83.8- 5.0 5.0---- 0.9------------
1997-03-22 0.0 2.0 -1.5- 88.8- 5.0 3.0---- 0.6------------
1997-03-23 -1.8 1.5 -3.5- 87.3- 6.3 3.3---- 0.0------------
1997-03-24 -1.2 1.8 -4.0- 83.3- 5.0 5.0---- 0.0------------
1997-03-25 0.2 3.0 -1.6- 75.0- 4.0 3.0---- 0.0------------
1997-03-26 -0.1 4.3 -4.5- 75.3- 5.0 3.7---- 0.0------------
1997-03-27 4.6 8.7 1.8- 80.0- 7.3 10.7---- 8.6------------
1997-03-28 2.1 4.5 0.0- 91.5- 8.0 6.0---- 19.2-- 4---------
1997-03-29 1.5 4.1 0.2- 87.8- 6.0 4.0---- 0.3-- 3---------
1997-03-30 1.5 4.8 -1.2- 78.8- 3.0 4.3---- 0.0------------
1997-03-31 3.4 6.0 1.0- 87.8- 6.0 2.3---- 0.0------------
1997-04-01 6.6 12.0 2.0- 80.3- 3.0 3.0---- 0.0------------
1997-04-02 7.2 12.1 3.8- 80.3- 2.7 3.0---- 0.0------------
1997-04-03 5.1 10.9 -1.0- 73.0- 5.0 3.7---- 3.8------------
1997-04-04 3.3 10.6 0.2- 80.5- 5.3 5.3---- 0.0------------
1997-04-05 2.4 6.2 0.3- 86.5- 6.0 5.0---- 4.2------------
1997-04-06 1.9 5.1 0.0- 82.8- 3.0 5.3---- 0.0-- 2---------
1997-04-07 1.3 3.6 -0.4- 74.5- 3.0 6.0---- 0.0------------
1997-04-08 1.0 5.2 -2.0- 81.5- 4.0 5.7---- 0.0------------
1997-04-09 2.7 4.5 0.9- 83.8- 6.7 4.0---- 0.0------------
1997-04-10 5.7 9.3 3.6- 86.3- 6.0 4.0---- 0.0------------
1997-04-11 2.9 6.1 0.5- 88.3- 5.7 13.7---- 2.4------------
1997-04-12 0.0 0.5 -1.0- 90.8- 7.3 13.3---- 3.6-- 4---------
1997-04-13 1.3 3.9 -1.6- 76.3- 5.3 8.0---- 0.0-- 3---------
1997-04-14 3.3 5.0 2.5- 82.5- 8.0 10.0---- 1.0------------
1997-04-15 -0.1 2.5 -2.6- 89.8- 8.0 10.0---- 4.3-- 2---------
1997-04-16 -1.5 1.2 -4.1- 88.8- 7.7 7.0---- 5.8-- 4---------
266.5 ms

 

Źródłem pochodzenia danych jest Instytut Meteorologii i Gospodarki Wodnej – Państwowy Instytut Badawczy. Dane Instytutu Meteorologii i Gospodarki Wodnej – Państwowego Instytutu Badawczego zostały przetworzone.

Dane źródłowe można odnaleźć na stronie https://dane.imgw.pl